EST,Max TemperatureF,Mean TemperatureF,Min TemperatureF,Max Dew PointF,MeanDew PointF,Min DewpointF,Max Humidity, Mean Humidity, Min Humidity, Max Sea Level PressureIn, Mean Sea Level PressureIn, Min Sea Level PressureIn, Max VisibilityMiles, Mean VisibilityMiles, Min VisibilityMiles, Max Wind SpeedMPH, Mean Wind SpeedMPH, Max Gust SpeedMPH,PrecipitationIn, CloudCover, Events, WindDirDegrees
2012-11-1,41,38,35,36,35,31,85,82,79,29.78,29.72,29.66,8,5,2,18,10,22,0.05,8,Rain,263
2012-11-2,40,37,34,34,30,28,85,78,70,30.05,29.89,29.75,10,9,5,20,9,25,T,8,Rain-Snow,290
2012-11-3,42,39,36,33,31,29,82,76,70,30.16,30.12,30.04,10,10,8,14,6,16,T,8,Rain,310
2012-11-4,39,37,34,32,29,26,82,71,59,30.17,30.15,30.13,10,10,8,13,5,30,T,8,Rain,334
2012-11-5,38,36,33,32,27,23,82,71,59,30.21,30.17,30.13,10,7,1,12,6,16,0.01,8,Rain-Snow,10
2012-11-6,45,37,29,25,23,21,72,59,45,30.17,30.07,29.96,9,8,7,10,6,16,0.00,3,,72
2012-11-7,45,36,27,26,24,21,81,63,45,30.10,30.01,29.93,8,7,4,13,7,17,0.00,4,,48
2012-11-8,48,39,29,30,27,22,78,64,49,30.22,30.17,30.10,9,7,3,13,5,18,0.00,3,,337
2012-11-9,53,41,29,35,31,25,89,72,54,30.26,30.21,30.17,8,4,3,12,6,17,0.00,3,,205
2012-11-10,62,53,44,42,40,34,89,68,46,30.24,30.19,30.14,10,6,2,15,8,22,0.17,5,Rain,181
2012-11-11,68,58,47,36,34,30,61,47,32,30.30,30.22,30.12,10,9,8,24,12,31,0.00,4,,185
2012-11-12,64,49,34,54,40,23,89,61,32,30.35,30.12,29.99,10,6,1,31,17,39,0.46,7,Rain,235
2012-11-13,37,33,29,26,22,19,78,63,48,30.55,30.46,30.36,10,9,7,20,6,28,0.00,7,,266
2012-11-14,39,33,27,27,24,22,75,65,54,30.59,30.52,30.42,8,7,6,13,5,23,0.00,7,,63
2012-11-15,48,37,25,28,24,20,81,60,38,30.42,30.36,30.32,9,7,5,8,4,10,0.00,3,,22
2012-11-16,50,39,28,34,29,26,89,66,42,30.55,30.44,30.36,7,5,3,10,5,15,0.00,3,,11
2012-11-17,54,40,26,32,27,22,92,65,38,30.62,30.57,30.53,8,6,3,10,6,13,0.00,1,,72
2012-11-18,57,45,32,31,28,26,78,55,32,30.54,30.50,30.44,8,7,5,9,6,12,0.00,2,,102
2012-11-19,56,44,31,33,30,27,75,57,38,30.43,30.34,30.22,8,7,4,6,3,7,0.00,4,,117
2012-11-20,56,46,35,36,33,31,82,62,41,30.20,30.16,30.11,8,6,4,15,1,81,0.00,7,,138
2012-11-21,60,47,33,37,31,27,89,60,30,30.25,30.21,30.15,10,7,4,10,1,21,0.00,2,,122
2012-11-22,61,49,36,39,34,30,76,59,42,30.23,30.15,29.98,9,7,4,15,8,24,0.00,2,,191
2012-11-23,53,42,31,47,33,21,86,69,52,30.02,29.90,29.81,10,8,4,32,16,40,0.03,7,Rain-Snow,250
2012-11-24,32,31,30,24,21,18,78,68,58,30.12,30.07,29.99,10,7,3,20,14,26,T,8,Snow,280
2012-11-25,39,33,27,23,21,18,75,62,48,30.07,29.98,29.87,10,7,1,21,10,29,0.02,5,Snow,235
2012-11-26,42,33,24,31,26,20,85,70,54,30.25,30.16,30.03,8,5,2,10,3,12,T,5,Snow,283
2012-11-27,35,30,25,32,25,19,96,76,56,30.33,30.29,30.22,9,6,1,12,4,15,0.01,8,Snow,349
2012-11-28,40,31,22,25,22,18,84,68,52,30.38,30.33,30.28,7,6,5,20,7,25,0.00,5,,247
2012-11-29,45,35,24,26,22,19,81,59,37,30.40,30.34,30.28,8,6,4,17,8,22,0.00,1,,210
2012-11-30,52,43,34,31,27,23,64,53,41,30.28,30.24,30.18,9,8,7,13,6,15,0.00,7,,178